sensor_id;sensor_type;location;lat;lon;timestamp;P1;durP1;ratioP1;P2;durP2;ratioP2
37657;SDS011;23500;53.268;8.308;2022-07-29T00:01:48;3.65;;;2.63;;
37657;SDS011;23500;53.268;8.308;2022-07-29T00:04:14;2.55;;;2.35;;
37657;SDS011;23500;53.268;8.308;2022-07-29T00:06:40;2.50;;;2.30;;
37657;SDS011;23500;53.268;8.308;2022-07-29T00:09:06;2.92;;;2.65;;
37657;SDS011;23500;53.268;8.308;2022-07-29T00:11:32;2.60;;;2.40;;
37657;SDS011;23500;53.268;8.308;2022-07-29T00:13:57;2.92;;;2.63;;
37657;SDS011;23500;53.268;8.308;2022-07-29T00:16:23;2.60;;;2.40;;
37657;SDS011;23500;53.268;8.308;2022-07-29T00:18:49;3.10;;;2.80;;
37657;SDS011;23500;53.268;8.308;2022-07-29T00:21:14;2.67;;;2.47;;
37657;SDS011;23500;53.268;8.308;2022-07-29T00:23:40;2.65;;;2.45;;
37657;SDS011;23500;53.268;8.308;2022-07-29T00:26:06;2.63;;;2.33;;
37657;SDS011;23500;53.268;8.308;2022-07-29T00:28:31;3.78;;;2.55;;
37657;SDS011;23500;53.268;8.308;2022-07-29T00:30:57;2.78;;;2.47;;
37657;SDS011;23500;53.268;8.308;2022-07-29T00:33:23;2.70;;;2.50;;
37657;SDS011;23500;53.268;8.308;2022-07-29T00:35:49;3.28;;;2.35;;
37657;SDS011;23500;53.268;8.308;2022-07-29T00:38:15;2.60;;;2.40;;
37657;SDS011;23500;53.268;8.308;2022-07-29T00:40:43;3.70;;;2.70;;
37657;SDS011;23500;53.268;8.308;2022-07-29T00:43:09;2.60;;;2.40;;
37657;SDS011;23500;53.268;8.308;2022-07-29T00:45:35;2.88;;;2.67;;
37657;SDS011;23500;53.268;8.308;2022-07-29T00:48:01;2.47;;;2.28;;
37657;SDS011;23500;53.268;8.308;2022-07-29T00:50:28;3.17;;;2.53;;
37657;SDS011;23500;53.268;8.308;2022-07-29T00:52:54;2.78;;;2.58;;
37657;SDS011;23500;53.268;8.308;2022-07-29T00:55:20;2.60;;;2.40;;
37657;SDS011;23500;53.268;8.308;2022-07-29T00:57:46;2.70;;;2.50;;
37657;SDS011;23500;53.268;8.308;2022-07-29T01:00:14;2.80;;;2.60;;
37657;SDS011;23500;53.268;8.308;2022-07-29T01:02:42;2.58;;;2.38;;
37657;SDS011;23500;53.268;8.308;2022-07-29T01:05:08;2.70;;;2.50;;
37657;SDS011;23500;53.268;8.308;2022-07-29T01:07:36;2.80;;;2.60;;
37657;SDS011;23500;53.268;8.308;2022-07-29T01:10:06;2.58;;;2.38;;
37657;SDS011;23500;53.268;8.308;2022-07-29T01:12:34;2.55;;;2.35;;
37657;SDS011;23500;53.268;8.308;2022-07-29T01:15:02;2.63;;;2.42;;
37657;SDS011;23500;53.268;8.308;2022-07-29T01:17:32;2.70;;;2.50;;
37657;SDS011;23500;53.268;8.308;2022-07-29T01:20:21;2.88;;;2.55;;
37657;SDS011;23500;53.268;8.308;2022-07-29T01:34:20;2.58;;;2.38;;
37657;SDS011;23500;53.268;8.308;2022-07-29T01:36:55;2.80;;;2.60;;
37657;SDS011;23500;53.268;8.308;2022-07-29T01:39:46;2.67;;;2.47;;
37657;SDS011;23500;53.268;8.308;2022-07-29T01:42:23;2.65;;;2.45;;
37657;SDS011;23500;53.268;8.308;2022-07-29T01:44:59;2.80;;;2.60;;
37657;SDS011;23500;53.268;8.308;2022-07-29T01:47:44;3.05;;;2.67;;
37657;SDS011;23500;53.268;8.308;2022-07-29T01:50:19;2.50;;;2.30;;
37657;SDS011;23500;53.268;8.308;2022-07-29T01:52:58;3.70;;;2.45;;
37657;SDS011;23500;53.268;8.308;2022-07-29T01:55:28;2.80;;;2.60;;
37657;SDS011;23500;53.268;8.308;2022-07-29T01:57:56;2.97;;;2.60;;
37657;SDS011;23500;53.268;8.308;2022-07-29T02:00:23;2.80;;;2.50;;
37657;SDS011;23500;53.268;8.308;2022-07-29T02:02:51;2.70;;;2.50;;
37657;SDS011;23500;53.268;8.308;2022-07-29T02:05:20;4.28;;;2.45;;
37657;SDS011;23500;53.268;8.308;2022-07-29T02:07:48;2.60;;;2.40;;
37657;SDS011;23500;53.268;8.308;2022-07-29T02:10:15;2.63;;;2.42;;
37657;SDS011;23500;53.268;8.308;2022-07-29T02:12:44;2.95;;;2.47;;
37657;SDS011;23500;53.268;8.308;2022-07-29T02:15:11;2.83;;;2.50;;
37657;SDS011;23500;53.268;8.308;2022-07-29T02:17:42;3.22;;;2.03;;
37657;SDS011;23500;53.268;8.308;2022-07-29T02:20:16;3.25;;;2.60;;
37657;SDS011;23500;53.268;8.308;2022-07-29T02:22:42;2.50;;;2.30;;
37657;SDS011;23500;53.268;8.308;2022-07-29T02:25:10;2.53;;;2.33;;
37657;SDS011;23500;53.268;8.308;2022-07-29T02:27:37;2.58;;;2.28;;
37657;SDS011;23500;53.268;8.308;2022-07-29T02:30:04;2.72;;;2.53;;
37657;SDS011;23500;53.268;8.308;2022-07-29T02:32:32;3.25;;;2.15;;
37657;SDS011;23500;53.268;8.308;2022-07-29T02:35:02;2.83;;;2.50;;
37657;SDS011;23500;53.268;8.308;2022-07-29T02:37:28;2.45;;;2.25;;
37657;SDS011;23500;53.268;8.308;2022-07-29T02:39:55;2.75;;;2.55;;
37657;SDS011;23500;53.268;8.308;2022-07-29T02:42:23;2.45;;;2.25;;
37657;SDS011;23500;53.268;8.308;2022-07-29T02:44:51;2.50;;;2.30;;
37657;SDS011;23500;53.268;8.308;2022-07-29T02:47:24;3.35;;;2.20;;
37657;SDS011;23500;53.268;8.308;2022-07-29T02:55:11;2.67;;;2.47;;
37657;SDS011;23500;53.268;8.308;2022-07-29T03:00:58;2.55;;;2.35;;
37657;SDS011;23500;53.268;8.308;2022-07-29T03:03:32;3.17;;;2.20;;
37657;SDS011;23500;53.268;8.308;2022-07-29T03:06:01;2.40;;;2.20;;
37657;SDS011;23500;53.268;8.308;2022-07-29T03:08:28;2.63;;;2.30;;
37657;SDS011;23500;53.268;8.308;2022-07-29T03:10:56;2.50;;;2.30;;
37657;SDS011;23500;53.268;8.308;2022-07-29T03:13:22;2.38;;;2.17;;
37657;SDS011;23500;53.268;8.308;2022-07-29T03:15:49;2.22;;;2.03;;
37657;SDS011;23500;53.268;8.308;2022-07-29T03:18:15;2.97;;;2.42;;
37657;SDS011;23500;53.268;8.308;2022-07-29T03:20:42;2.30;;;2.10;;
37657;SDS011;23500;53.268;8.308;2022-07-29T03:23:07;3.00;;;2.40;;
37657;SDS011;23500;53.268;8.308;2022-07-29T03:25:33;2.50;;;2.30;;
37657;SDS011;23500;53.268;8.308;2022-07-29T03:27:59;2.42;;;2.22;;
37657;SDS011;23500;53.268;8.308;2022-07-29T03:30:25;2.58;;;2.38;;
37657;SDS011;23500;53.268;8.308;2022-07-29T03:32:51;2.33;;;2.13;;
37657;SDS011;23500;53.268;8.308;2022-07-29T03:35:19;2.50;;;2.30;;
37657;SDS011;23500;53.268;8.308;2022-07-29T03:37:45;2.47;;;2.28;;
37657;SDS011;23500;53.268;8.308;2022-07-29T03:40:11;2.42;;;2.20;;
37657;SDS011;23500;53.268;8.308;2022-07-29T03:42:43;2.08;;;1.98;;
37657;SDS011;23500;53.268;8.308;2022-07-29T03:45:12;2.63;;;2.42;;
37657;SDS011;23500;53.268;8.308;2022-07-29T03:47:45;2.40;;;2.20;;
37657;SDS011;23500;53.268;8.308;2022-07-29T03:50:15;2.53;;;2.33;;
37657;SDS011;23500;53.268;8.308;2022-07-29T03:52:42;2.72;;;2.30;;
37657;SDS011;23500;53.268;8.308;2022-07-29T03:55:08;2.78;;;2.20;;
37657;SDS011;23500;53.268;8.308;2022-07-29T03:57:34;2.47;;;2.28;;
37657;SDS011;23500;53.268;8.308;2022-07-29T04:00:03;2.25;;;2.05;;
37657;SDS011;23500;53.268;8.308;2022-07-29T04:02:30;2.60;;;2.40;;
37657;SDS011;23500;53.268;8.308;2022-07-29T04:04:57;2.58;;;2.38;;
37657;SDS011;23500;53.268;8.308;2022-07-29T04:07:23;2.30;;;2.10;;
37657;SDS011;23500;53.268;8.308;2022-07-29T04:09:48;2.35;;;2.15;;
37657;SDS011;23500;53.268;8.308;2022-07-29T04:12:14;2.78;;;2.17;;
37657;SDS011;23500;53.268;8.308;2022-07-29T04:14:40;2.50;;;2.30;;
37657;SDS011;23500;53.268;8.308;2022-07-29T04:17:05;2.40;;;2.20;;
37657;SDS011;23500;53.268;8.308;2022-07-29T04:19:31;2.60;;;2.25;;
37657;SDS011;23500;53.268;8.308;2022-07-29T04:21:58;2.50;;;2.30;;
37657;SDS011;23500;53.268;8.308;2022-07-29T04:24:24;2.38;;;2.17;;
37657;SDS011;23500;53.268;8.308;2022-07-29T04:26:50;2.50;;;2.30;;
37657;SDS011;23500;53.268;8.308;2022-07-29T04:29:16;2.50;;;2.00;;
37657;SDS011;23500;53.268;8.308;2022-07-29T04:31:42;2.47;;;2.28;;
37657;SDS011;23500;53.268;8.308;2022-07-29T04:34:08;2.72;;;2.53;;
37657;SDS011;23500;53.268;8.308;2022-07-29T04:36:34;2.45;;;2.15;;
37657;SDS011;23500;53.268;8.308;2022-07-29T04:39:00;2.45;;;2.25;;
37657;SDS011;23500;53.268;8.308;2022-07-29T04:41:26;2.40;;;2.20;;
37657;SDS011;23500;53.268;8.308;2022-07-29T04:43:52;2.20;;;2.00;;
37657;SDS011;23500;53.268;8.308;2022-07-29T04:46:18;2.30;;;2.10;;
37657;SDS011;23500;53.268;8.308;2022-07-29T04:48:47;2.50;;;2.30;;
37657;SDS011;23500;53.268;8.308;2022-07-29T04:51:15;2.08;;;1.98;;
37657;SDS011;23500;53.268;8.308;2022-07-29T04:53:41;2.20;;;2.00;;
37657;SDS011;23500;53.268;8.308;2022-07-29T04:56:07;2.30;;;2.10;;
37657;SDS011;23500;53.268;8.308;2022-07-29T04:58:36;2.20;;;2.10;;
37657;SDS011;23500;53.268;8.308;2022-07-29T05:01:02;2.60;;;2.40;;
37657;SDS011;23500;53.268;8.308;2022-07-29T05:03:28;2.30;;;2.10;;
37657;SDS011;23500;53.268;8.308;2022-07-29T05:05:54;2.35;;;2.15;;
37657;SDS011;23500;53.268;8.308;2022-07-29T05:08:20;2.05;;;1.95;;
37657;SDS011;23500;53.268;8.308;2022-07-29T05:10:45;2.30;;;2.10;;
37657;SDS011;23500;53.268;8.308;2022-07-29T05:13:11;2.45;;;2.25;;
37657;SDS011;23500;53.268;8.308;2022-07-29T05:15:37;2.45;;;2.25;;
37657;SDS011;23500;53.268;8.308;2022-07-29T05:18:03;2.70;;;2.50;;
37657;SDS011;23500;53.268;8.308;2022-07-29T05:20:30;2.53;;;2.33;;
37657;SDS011;23500;53.268;8.308;2022-07-29T05:22:57;2.30;;;2.10;;
37657;SDS011;23500;53.268;8.308;2022-07-29T05:25:24;2.40;;;2.20;;
37657;SDS011;23500;53.268;8.308;2022-07-29T05:27:50;2.50;;;2.30;;
37657;SDS011;23500;53.268;8.308;2022-07-29T05:30:16;2.17;;;2.03;;
37657;SDS011;23500;53.268;8.308;2022-07-29T05:32:42;2.38;;;2.17;;
37657;SDS011;23500;53.268;8.308;2022-07-29T05:35:08;2.25;;;2.05;;
37657;SDS011;23500;53.268;8.308;2022-07-29T05:37:34;2.97;;;2.22;;
37657;SDS011;23500;53.268;8.308;2022-07-29T05:39:59;2.38;;;2.13;;
37657;SDS011;23500;53.268;8.308;2022-07-29T05:42:26;2.28;;;2.08;;
37657;SDS011;23500;53.268;8.308;2022-07-29T05:44:52;2.50;;;2.30;;
37657;SDS011;23500;53.268;8.308;2022-07-29T05:47:18;2.30;;;2.10;;
37657;SDS011;23500;53.268;8.308;2022-07-29T05:49:43;2.33;;;2.13;;
37657;SDS011;23500;53.268;8.308;2022-07-29T05:52:09;2.22;;;2.03;;
37657;SDS011;23500;53.268;8.308;2022-07-29T05:54:35;2.03;;;1.92;;
37657;SDS011;23500;53.268;8.308;2022-07-29T05:57:01;2.20;;;2.00;;
37657;SDS011;23500;53.268;8.308;2022-07-29T05:59:27;2.33;;;2.10;;
37657;SDS011;23500;53.268;8.308;2022-07-29T06:01:53;2.60;;;2.40;;
37657;SDS011;23500;53.268;8.308;2022-07-29T06:04:19;2.40;;;2.20;;
37657;SDS011;23500;53.268;8.308;2022-07-29T06:06:45;2.40;;;2.20;;
37657;SDS011;23500;53.268;8.308;2022-07-29T06:09:10;2.03;;;1.92;;
37657;SDS011;23500;53.268;8.308;2022-07-29T06:11:36;2.65;;;2.45;;
37657;SDS011;23500;53.268;8.308;2022-07-29T06:14:02;2.30;;;2.10;;
37657;SDS011;23500;53.268;8.308;2022-07-29T06:16:28;2.15;;;2.03;;
37657;SDS011;23500;53.268;8.308;2022-07-29T06:18:54;2.30;;;2.10;;
37657;SDS011;23500;53.268;8.308;2022-07-29T06:21:19;2.42;;;2.22;;
37657;SDS011;23500;53.268;8.308;2022-07-29T06:23:46;2.38;;;2.17;;
37657;SDS011;23500;53.268;8.308;2022-07-29T06:26:12;2.50;;;2.20;;
37657;SDS011;23500;53.268;8.308;2022-07-29T06:28:38;2.33;;;2.10;;
37657;SDS011;23500;53.268;8.308;2022-07-29T06:31:04;2.22;;;2.00;;
37657;SDS011;23500;53.268;8.308;2022-07-29T06:33:30;2.20;;;2.00;;
37657;SDS011;23500;53.268;8.308;2022-07-29T06:35:56;2.70;;;2.00;;
37657;SDS011;23500;53.268;8.308;2022-07-29T06:38:22;3.10;;;1.98;;
37657;SDS011;23500;53.268;8.308;2022-07-29T06:40:47;3.83;;;2.20;;
37657;SDS011;23500;53.268;8.308;2022-07-29T06:43:35;2.70;;;2.25;;
37657;SDS011;23500;53.268;8.308;2022-07-29T06:46:06;3.70;;;2.10;;
37657;SDS011;23500;53.268;8.308;2022-07-29T06:48:34;3.28;;;2.00;;
37657;SDS011;23500;53.268;8.308;2022-07-29T06:51:01;2.50;;;2.00;;
37657;SDS011;23500;53.268;8.308;2022-07-29T06:53:28;2.95;;;2.13;;
37657;SDS011;23500;53.268;8.308;2022-07-29T06:55:54;3.75;;;2.40;;
37657;SDS011;23500;53.268;8.308;2022-07-29T06:58:20;4.03;;;2.30;;
37657;SDS011;23500;53.268;8.308;2022-07-29T07:00:47;4.68;;;2.45;;
37657;SDS011;23500;53.268;8.308;2022-07-29T07:03:13;7.45;;;3.80;;
37657;SDS011;23500;53.268;8.308;2022-07-29T07:05:40;8.57;;;3.47;;
37657;SDS011;23500;53.268;8.308;2022-07-29T07:08:06;8.13;;;3.45;;
37657;SDS011;23500;53.268;8.308;2022-07-29T07:10:32;8.70;;;3.83;;
37657;SDS011;23500;53.268;8.308;2022-07-29T07:12:59;8.43;;;3.42;;
37657;SDS011;23500;53.268;8.308;2022-07-29T07:15:25;10.35;;;3.58;;
37657;SDS011;23500;53.268;8.308;2022-07-29T07:17:52;8.93;;;3.65;;
37657;SDS011;23500;53.268;8.308;2022-07-29T07:20:17;9.70;;;3.88;;
37657;SDS011;23500;53.268;8.308;2022-07-29T07:22:43;10.93;;;4.20;;
37657;SDS011;23500;53.268;8.308;2022-07-29T07:25:09;10.65;;;3.70;;
37657;SDS011;23500;53.268;8.308;2022-07-29T07:27:36;6.85;;;3.42;;
37657;SDS011;23500;53.268;8.308;2022-07-29T07:30:04;8.50;;;3.65;;
37657;SDS011;23500;53.268;8.308;2022-07-29T07:32:35;10.27;;;4.22;;
37657;SDS011;23500;53.268;8.308;2022-07-29T07:35:01;13.32;;;4.03;;
37657;SDS011;23500;53.268;8.308;2022-07-29T07:37:28;8.55;;;4.15;;
37657;SDS011;23500;53.268;8.308;2022-07-29T07:39:54;9.20;;;3.85;;
37657;SDS011;23500;53.268;8.308;2022-07-29T07:42:19;12.25;;;4.55;;
37657;SDS011;23500;53.268;8.308;2022-07-29T07:44:45;10.13;;;4.32;;
37657;SDS011;23500;53.268;8.308;2022-07-29T07:47:13;8.80;;;3.75;;
37657;SDS011;23500;53.268;8.308;2022-07-29T07:49:39;9.05;;;3.92;;
37657;SDS011;23500;53.268;8.308;2022-07-29T07:52:04;11.20;;;4.70;;
37657;SDS011;23500;53.268;8.308;2022-07-29T07:54:30;10.07;;;4.00;;
37657;SDS011;23500;53.268;8.308;2022-07-29T07:56:56;9.95;;;4.32;;
37657;SDS011;23500;53.268;8.308;2022-07-29T07:59:22;11.70;;;4.38;;
37657;SDS011;23500;53.268;8.308;2022-07-29T08:01:48;11.68;;;4.55;;
37657;SDS011;23500;53.268;8.308;2022-07-29T08:04:15;12.82;;;4.75;;
37657;SDS011;23500;53.268;8.308;2022-07-29T08:06:40;9.70;;;4.20;;
37657;SDS011;23500;53.268;8.308;2022-07-29T08:09:06;10.05;;;4.47;;
37657;SDS011;23500;53.268;8.308;2022-07-29T08:11:32;7.45;;;4.03;;
37657;SDS011;23500;53.268;8.308;2022-07-29T08:13:58;8.48;;;3.97;;
37657;SDS011;23500;53.268;8.308;2022-07-29T08:16:26;7.65;;;3.97;;
37657;SDS011;23500;53.268;8.308;2022-07-29T08:18:52;9.30;;;3.88;;
37657;SDS011;23500;53.268;8.308;2022-07-29T08:21:21;9.93;;;4.00;;
37657;SDS011;23500;53.268;8.308;2022-07-29T08:23:49;11.68;;;4.63;;
37657;SDS011;23500;53.268;8.308;2022-07-29T08:26:18;9.23;;;4.07;;
37657;SDS011;23500;53.268;8.308;2022-07-29T08:28:44;10.20;;;3.80;;
37657;SDS011;23500;53.268;8.308;2022-07-29T08:31:13;12.32;;;4.47;;
37657;SDS011;23500;53.268;8.308;2022-07-29T08:33:39;7.85;;;3.95;;
37657;SDS011;23500;53.268;8.308;2022-07-29T08:36:05;8.35;;;4.03;;
37657;SDS011;23500;53.268;8.308;2022-07-29T08:38:32;11.27;;;4.43;;
37657;SDS011;23500;53.268;8.308;2022-07-29T08:40:58;9.80;;;3.88;;
37657;SDS011;23500;53.268;8.308;2022-07-29T08:43:27;9.63;;;3.70;;
37657;SDS011;23500;53.268;8.308;2022-07-29T08:45:53;6.57;;;3.90;;
37657;SDS011;23500;53.268;8.308;2022-07-29T08:48:20;8.65;;;3.95;;
37657;SDS011;23500;53.268;8.308;2022-07-29T08:50:48;8.45;;;3.95;;
37657;SDS011;23500;53.268;8.308;2022-07-29T08:53:16;9.40;;;3.85;;
37657;SDS011;23500;53.268;8.308;2022-07-29T08:55:43;9.80;;;4.25;;
37657;SDS011;23500;53.268;8.308;2022-07-29T08:58:11;9.23;;;4.15;;
37657;SDS011;23500;53.268;8.308;2022-07-29T09:00:41;9.98;;;3.90;;
37657;SDS011;23500;53.268;8.308;2022-07-29T09:03:09;8.10;;;4.13;;
37657;SDS011;23500;53.268;8.308;2022-07-29T09:05:41;7.43;;;3.63;;
37657;SDS011;23500;53.268;8.308;2022-07-29T09:08:08;8.70;;;3.83;;
37657;SDS011;23500;53.268;8.308;2022-07-29T09:10:36;8.73;;;3.53;;
37657;SDS011;23500;53.268;8.308;2022-07-29T09:13:03;7.43;;;4.03;;
37657;SDS011;23500;53.268;8.308;2022-07-29T09:15:28;6.22;;;3.28;;
37657;SDS011;23500;53.268;8.308;2022-07-29T09:17:54;7.63;;;3.80;;
37657;SDS011;23500;53.268;8.308;2022-07-29T09:20:21;8.23;;;4.22;;
37657;SDS011;23500;53.268;8.308;2022-07-29T09:22:48;8.90;;;3.90;;
37657;SDS011;23500;53.268;8.308;2022-07-29T09:28:06;7.13;;;3.63;;
37657;SDS011;23500;53.268;8.308;2022-07-29T09:30:52;7.30;;;4.00;;
37657;SDS011;23500;53.268;8.308;2022-07-29T09:33:20;6.75;;;3.60;;
37657;SDS011;23500;53.268;8.308;2022-07-29T09:35:57;8.40;;;3.50;;
37657;SDS011;23500;53.268;8.308;2022-07-29T09:38:33;8.50;;;4.13;;
37657;SDS011;23500;53.268;8.308;2022-07-29T09:41:04;9.98;;;3.80;;
37657;SDS011;23500;53.268;8.308;2022-07-29T09:43:33;8.20;;;3.40;;
37657;SDS011;23500;53.268;8.308;2022-07-29T09:46:11;7.45;;;3.70;;
37657;SDS011;23500;53.268;8.308;2022-07-29T09:48:38;8.18;;;3.90;;
37657;SDS011;23500;53.268;8.308;2022-07-29T09:51:03;6.47;;;3.60;;
37657;SDS011;23500;53.268;8.308;2022-07-29T09:53:34;6.85;;;3.42;;
37657;SDS011;23500;53.268;8.308;2022-07-29T09:56:02;6.75;;;3.67;;
37657;SDS011;23500;53.268;8.308;2022-07-29T09:58:31;6.78;;;3.30;;
37657;SDS011;23500;53.268;8.308;2022-07-29T10:01:00;7.20;;;3.55;;
37657;SDS011;23500;53.268;8.308;2022-07-29T10:03:27;6.95;;;3.80;;
37657;SDS011;23500;53.268;8.308;2022-07-29T10:06:10;7.10;;;3.50;;
37657;SDS011;23500;53.268;8.308;2022-07-29T10:08:38;6.65;;;3.65;;
37657;SDS011;23500;53.268;8.308;2022-07-29T10:11:14;9.85;;;3.95;;
37657;SDS011;23500;53.268;8.308;2022-07-29T10:13:44;5.60;;;3.65;;
37657;SDS011;23500;53.268;8.308;2022-07-29T10:16:12;5.25;;;3.25;;
37657;SDS011;23500;53.268;8.308;2022-07-29T10:18:39;6.38;;;3.20;;
37657;SDS011;23500;53.268;8.308;2022-07-29T10:21:08;5.93;;;3.33;;
37657;SDS011;23500;53.268;8.308;2022-07-29T10:23:35;7.60;;;3.85;;
37657;SDS011;23500;53.268;8.308;2022-07-29T10:26:01;7.55;;;3.72;;
37657;SDS011;23500;53.268;8.308;2022-07-29T10:28:29;8.32;;;3.65;;
37657;SDS011;23500;53.268;8.308;2022-07-29T10:30:58;6.57;;;3.15;;
37657;SDS011;23500;53.268;8.308;2022-07-29T10:36:21;6.13;;;3.35;;
37657;SDS011;23500;53.268;8.308;2022-07-29T10:44:18;5.97;;;3.60;;
37657;SDS011;23500;53.268;8.308;2022-07-29T10:46:46;7.57;;;3.40;;
37657;SDS011;23500;53.268;8.308;2022-07-29T10:49:16;6.28;;;3.30;;
37657;SDS011;23500;53.268;8.308;2022-07-29T10:59:44;4.82;;;3.28;;
37657;SDS011;23500;53.268;8.308;2022-07-29T11:05:08;6.07;;;3.15;;
37657;SDS011;23500;53.268;8.308;2022-07-29T11:07:37;5.68;;;3.08;;
37657;SDS011;23500;53.268;8.308;2022-07-29T11:15:07;5.32;;;3.40;;
37657;SDS011;23500;53.268;8.308;2022-07-29T11:23:21;7.47;;;3.50;;
37657;SDS011;23500;53.268;8.308;2022-07-29T11:28:35;5.28;;;2.63;;
37657;SDS011;23500;53.268;8.308;2022-07-29T11:31:07;7.03;;;3.50;;
37657;SDS011;23500;53.268;8.308;2022-07-29T11:33:34;6.57;;;3.22;;
37657;SDS011;23500;53.268;8.308;2022-07-29T11:38:36;4.80;;;3.05;;
37657;SDS011;23500;53.268;8.308;2022-07-29T11:43:52;4.95;;;3.10;;
37657;SDS011;23500;53.268;8.308;2022-07-29T11:49:24;4.80;;;2.88;;
37657;SDS011;23500;53.268;8.308;2022-07-29T11:51:51;4.93;;;3.33;;
37657;SDS011;23500;53.268;8.308;2022-07-29T11:54:23;5.65;;;3.17;;
37657;SDS011;23500;53.268;8.308;2022-07-29T11:56:53;5.53;;;3.22;;
37657;SDS011;23500;53.268;8.308;2022-07-29T11:59:19;5.70;;;3.05;;
37657;SDS011;23500;53.268;8.308;2022-07-29T12:01:56;5.40;;;2.90;;
37657;SDS011;23500;53.268;8.308;2022-07-29T12:04:23;5.50;;;3.00;;
37657;SDS011;23500;53.268;8.308;2022-07-29T12:06:50;5.25;;;3.33;;
37657;SDS011;23500;53.268;8.308;2022-07-29T12:09:16;4.40;;;2.90;;
37657;SDS011;23500;53.268;8.308;2022-07-29T12:11:42;4.15;;;2.85;;
37657;SDS011;23500;53.268;8.308;2022-07-29T12:14:08;5.63;;;2.92;;
37657;SDS011;23500;53.268;8.308;2022-07-29T12:16:37;5.38;;;2.70;;
37657;SDS011;23500;53.268;8.308;2022-07-29T12:19:03;4.88;;;2.65;;
37657;SDS011;23500;53.268;8.308;2022-07-29T12:21:35;6.63;;;3.33;;
37657;SDS011;23500;53.268;8.308;2022-07-29T12:24:12;5.78;;;3.22;;
37657;SDS011;23500;53.268;8.308;2022-07-29T12:26:51;5.03;;;3.00;;
37657;SDS011;23500;53.268;8.308;2022-07-29T12:29:22;5.53;;;2.97;;
37657;SDS011;23500;53.268;8.308;2022-07-29T12:31:51;5.25;;;2.60;;
37657;SDS011;23500;53.268;8.308;2022-07-29T12:34:25;4.68;;;2.58;;
37657;SDS011;23500;53.268;8.308;2022-07-29T12:36:53;4.85;;;3.10;;
37657;SDS011;23500;53.268;8.308;2022-07-29T12:39:20;4.07;;;2.80;;
37657;SDS011;23500;53.268;8.308;2022-07-29T12:41:46;4.30;;;2.78;;
37657;SDS011;23500;53.268;8.308;2022-07-29T12:44:11;4.13;;;2.50;;
37657;SDS011;23500;53.268;8.308;2022-07-29T12:46:37;5.05;;;2.65;;
37657;SDS011;23500;53.268;8.308;2022-07-29T12:49:03;3.90;;;2.65;;
37657;SDS011;23500;53.268;8.308;2022-07-29T12:51:36;3.83;;;2.67;;
37657;SDS011;23500;53.268;8.308;2022-07-29T12:56:32;4.82;;;3.08;;
37657;SDS011;23500;53.268;8.308;2022-07-29T12:58:58;4.88;;;2.80;;
37657;SDS011;23500;53.268;8.308;2022-07-29T13:01:23;4.72;;;2.92;;
37657;SDS011;23500;53.268;8.308;2022-07-29T13:03:50;4.93;;;2.70;;
37657;SDS011;23500;53.268;8.308;2022-07-29T13:06:27;5.35;;;2.97;;
37657;SDS011;23500;53.268;8.308;2022-07-29T13:09:13;4.05;;;2.70;;
37657;SDS011;23500;53.268;8.308;2022-07-29T13:11:50;4.38;;;2.90;;
37657;SDS011;23500;53.268;8.308;2022-07-29T13:14:33;3.55;;;2.38;;
37657;SDS011;23500;53.268;8.308;2022-07-29T13:22:01;4.45;;;2.60;;
37657;SDS011;23500;53.268;8.308;2022-07-29T13:24:27;5.00;;;2.83;;
37657;SDS011;23500;53.268;8.308;2022-07-29T13:26:53;4.90;;;2.63;;
37657;SDS011;23500;53.268;8.308;2022-07-29T13:29:18;3.70;;;2.92;;
37657;SDS011;23500;53.268;8.308;2022-07-29T13:31:44;4.43;;;2.88;;
37657;SDS011;23500;53.268;8.308;2022-07-29T13:34:09;5.00;;;2.63;;
37657;SDS011;23500;53.268;8.308;2022-07-29T13:36:35;3.63;;;2.45;;
37657;SDS011;23500;53.268;8.308;2022-07-29T13:39:01;3.65;;;2.53;;
37657;SDS011;23500;53.268;8.308;2022-07-29T13:41:27;4.20;;;2.50;;
37657;SDS011;23500;53.268;8.308;2022-07-29T13:43:53;4.38;;;2.83;;
37657;SDS011;23500;53.268;8.308;2022-07-29T13:46:19;4.57;;;2.75;;
37657;SDS011;23500;53.268;8.308;2022-07-29T13:48:45;4.20;;;2.53;;
37657;SDS011;23500;53.268;8.308;2022-07-29T13:51:11;3.78;;;2.55;;
37657;SDS011;23500;53.268;8.308;2022-07-29T13:53:36;6.32;;;2.60;;
37657;SDS011;23500;53.268;8.308;2022-07-29T13:56:02;3.65;;;2.80;;
37657;SDS011;23500;53.268;8.308;2022-07-29T13:58:30;4.05;;;2.72;;
37657;SDS011;23500;53.268;8.308;2022-07-29T14:00:57;4.82;;;2.80;;
37657;SDS011;23500;53.268;8.308;2022-07-29T14:03:22;3.78;;;2.70;;
37657;SDS011;23500;53.268;8.308;2022-07-29T14:05:49;4.15;;;2.80;;
37657;SDS011;23500;53.268;8.308;2022-07-29T14:08:14;3.05;;;2.22;;
37657;SDS011;23500;53.268;8.308;2022-07-29T14:10:40;3.67;;;2.70;;
37657;SDS011;23500;53.268;8.308;2022-07-29T14:13:06;3.30;;;2.45;;
37657;SDS011;23500;53.268;8.308;2022-07-29T14:15:31;3.92;;;2.65;;
37657;SDS011;23500;53.268;8.308;2022-07-29T14:17:57;4.60;;;2.72;;
37657;SDS011;23500;53.268;8.308;2022-07-29T14:20:23;4.45;;;2.55;;
37657;SDS011;23500;53.268;8.308;2022-07-29T14:22:48;3.92;;;2.60;;
37657;SDS011;23500;53.268;8.308;2022-07-29T14:25:14;3.53;;;2.53;;
37657;SDS011;23500;53.268;8.308;2022-07-29T14:27:40;4.95;;;2.88;;
37657;SDS011;23500;53.268;8.308;2022-07-29T14:30:06;3.53;;;2.70;;
37657;SDS011;23500;53.268;8.308;2022-07-29T14:32:32;2.80;;;2.30;;
37657;SDS011;23500;53.268;8.308;2022-07-29T14:34:57;3.00;;;2.10;;
37657;SDS011;23500;53.268;8.308;2022-07-29T14:37:23;3.55;;;2.58;;
37657;SDS011;23500;53.268;8.308;2022-07-29T14:39:48;3.85;;;2.78;;
37657;SDS011;23500;53.268;8.308;2022-07-29T14:42:15;3.22;;;2.60;;
37657;SDS011;23500;53.268;8.308;2022-07-29T14:44:40;3.42;;;2.42;;
37657;SDS011;23500;53.268;8.308;2022-07-29T14:47:06;3.08;;;2.40;;
37657;SDS011;23500;53.268;8.308;2022-07-29T14:49:32;3.80;;;2.60;;
37657;SDS011;23500;53.268;8.308;2022-07-29T14:51:57;4.15;;;2.40;;
37657;SDS011;23500;53.268;8.308;2022-07-29T14:54:23;4.00;;;2.65;;
37657;SDS011;23500;53.268;8.308;2022-07-29T14:56:48;3.60;;;2.60;;
37657;SDS011;23500;53.268;8.308;2022-07-29T14:59:15;3.03;;;2.42;;
37657;SDS011;23500;53.268;8.308;2022-07-29T15:01:41;4.70;;;2.58;;
37657;SDS011;23500;53.268;8.308;2022-07-29T15:04:07;3.60;;;2.47;;
37657;SDS011;23500;53.268;8.308;2022-07-29T15:06:33;3.13;;;2.25;;
37657;SDS011;23500;53.268;8.308;2022-07-29T15:08:59;3.65;;;2.67;;
37657;SDS011;23500;53.268;8.308;2022-07-29T15:11:24;4.22;;;2.47;;
37657;SDS011;23500;53.268;8.308;2022-07-29T15:13:50;3.50;;;2.40;;
37657;SDS011;23500;53.268;8.308;2022-07-29T15:16:16;3.22;;;2.53;;
37657;SDS011;23500;53.268;8.308;2022-07-29T15:18:41;4.20;;;2.65;;
37657;SDS011;23500;53.268;8.308;2022-07-29T15:21:07;3.75;;;2.40;;
37657;SDS011;23500;53.268;8.308;2022-07-29T15:23:33;3.65;;;2.47;;
37657;SDS011;23500;53.268;8.308;2022-07-29T15:26:02;4.22;;;2.50;;
37657;SDS011;23500;53.268;8.308;2022-07-29T15:28:28;3.45;;;2.65;;
37657;SDS011;23500;53.268;8.308;2022-07-29T15:30:54;4.28;;;2.53;;
37657;SDS011;23500;53.268;8.308;2022-07-29T15:33:20;2.95;;;2.42;;
37657;SDS011;23500;53.268;8.308;2022-07-29T15:35:45;3.17;;;2.40;;
37657;SDS011;23500;53.268;8.308;2022-07-29T15:38:11;3.63;;;2.63;;
37657;SDS011;23500;53.268;8.308;2022-07-29T15:40:38;3.10;;;2.80;;
37657;SDS011;23500;53.268;8.308;2022-07-29T15:43:06;3.38;;;2.70;;
37657;SDS011;23500;53.268;8.308;2022-07-29T15:45:41;3.33;;;2.60;;
37657;SDS011;23500;53.268;8.308;2022-07-29T15:48:31;2.85;;;2.45;;
37657;SDS011;23500;53.268;8.308;2022-07-29T15:50:56;3.80;;;2.53;;
37657;SDS011;23500;53.268;8.308;2022-07-29T15:53:23;3.28;;;2.42;;
37657;SDS011;23500;53.268;8.308;2022-07-29T15:55:49;3.13;;;2.25;;
37657;SDS011;23500;53.268;8.308;2022-07-29T15:58:15;3.42;;;2.85;;
37657;SDS011;23500;53.268;8.308;2022-07-29T16:00:41;3.20;;;2.70;;
37657;SDS011;23500;53.268;8.308;2022-07-29T16:03:07;3.78;;;2.55;;